Terminal Aerodrome Forecast
Issued by NWS Charleston, WV

Current Version | Previous Version | Graphics & Text | Print | Product List | Glossary On
Versions: 1 2 3 4 5 6 7 8 9 10 11 12 13 14 15 16 17 18 19 20 21 22 23 24
000
FTUS41 KRLX 181439 AAA
TAFBKW
TAF AMD
KBKW 181439Z 1815/1912 31006KT P6SM SCT020
     FM181700 18004KT P6SM FEW250
     FM190100 14010KT P6SM FEW250
     FM190300 15012G18KT P6SM SCT250
     FM190600 15013G20KT P6SM SCT080
     FM190800 15013G20KT 6SM -SHRA BKN025
     FM191000 15012G18KT 5SM -SHRA BKN015=

USA.gov is the U.S. government's official web portal to all federal, state and local government web resources and services.